Time;durP1;ratioP1;P1;durP2;ratioP2;P2;SDS_P1;SDS_P2;PMS_P1;PMS_P2;Temp;Humidity;BMP_temperature;BMP_pressure;BME280_temperature;BME280_humidity;BME280_pressure;Samples;Min_cycle;Max_cycle;Signal;HPM_P1;HPM_P2
2023/08/10 00:01:56;;;;;;;1.63;0.80;;;13.20;99.90;;;;;;5039346;28;20183;-86
2023/08/10 00:04:24;;;;;;;1.00;0.70;;;13.30;99.90;;;;;;5037134;28;20204;-86
2023/08/10 00:06:51;;;;;;;2.03;0.95;;;13.30;99.90;;;;;;5035180;28;20214;-86
2023/08/10 00:09:19;;;;;;;1.35;0.80;;;13.20;99.90;;;;;;5028563;28;20275;-85
2023/08/10 00:11:46;;;;;;;3.78;0.95;;;13.10;99.90;;;;;;5037884;28;20186;-85
2023/08/10 00:14:14;;;;;;;1.17;1.00;;;13.00;99.90;;;;;;5037903;28;20193;-84
2023/08/10 00:16:41;;;;;;;3.95;1.00;;;12.90;99.90;;;;;;5015736;28;20932;-84
2023/08/10 00:19:09;;;;;;;2.55;1.30;;;13.00;99.90;;;;;;5040506;28;20181;-85
2023/08/10 00:21:36;;;;;;;1.48;0.88;;;13.00;99.90;;;;;;5038434;28;20564;-86
2023/08/10 00:24:04;;;;;;;3.30;1.25;;;13.10;99.90;;;;;;5030718;28;20232;-85
2023/08/10 00:26:32;;;;;;;2.00;1.23;;;13.10;99.90;;;;;;5036811;28;20192;-86
2023/08/10 00:28:59;;;;;;;1.98;1.10;;;13.00;99.90;;;;;;5036539;28;20188;-85
2023/08/10 00:31:27;;;;;;;2.75;1.20;;;12.90;99.90;;;;;;5043867;28;20189;-86
2023/08/10 00:33:55;;;;;;;2.97;1.27;;;12.80;99.90;;;;;;5035056;28;20198;-85
2023/08/10 00:36:23;;;;;;;8.98;1.30;;;12.80;99.90;;;;;;5039191;28;20198;-86
2023/08/10 00:38:50;;;;;;;3.08;1.33;;;12.70;99.90;;;;;;5037997;28;20194;-85
2023/08/10 00:41:18;;;;;;;2.42;1.38;;;12.70;99.90;;;;;;5038257;28;20219;-84
2023/08/10 00:43:46;;;;;;;2.15;1.25;;;12.60;99.90;;;;;;5020889;28;20597;-85
2023/08/10 00:46:14;;;;;;;2.45;1.38;;;12.60;99.90;;;;;;5016344;28;20194;-85
2023/08/10 00:48:41;;;;;;;3.95;1.30;;;12.60;99.90;;;;;;5043627;28;20556;-84
2023/08/10 00:51:09;;;;;;;3.40;1.42;;;12.60;99.90;;;;;;5036561;28;20314;-85
2023/08/10 00:53:37;;;;;;;2.67;1.40;;;12.70;99.90;;;;;;5030781;28;20785;-85
2023/08/10 00:56:06;;;;;;;2.55;1.13;;;12.80;99.90;;;;;;5042617;28;20679;-84
2023/08/10 00:58:35;;;;;;;1.65;1.13;;;12.90;99.90;;;;;;5039743;28;20194;-86
2023/08/10 01:01:04;;;;;;;3.25;1.10;;;13.10;99.90;;;;;;5016207;28;20305;-86
2023/08/10 01:03:31;;;;;;;3.20;1.40;;;12.90;99.90;;;;;;5036400;28;20188;-85
2023/08/10 01:06:10;;;;;;;1.40;1.20;;;12.80;99.90;;;;;;5036852;28;20190;-86
2023/08/10 01:09:10;;;;;;;2.38;1.23;;;12.80;99.90;;;;;;5034668;28;20194;-86
2023/08/10 01:11:51;;;;;;;3.92;1.33;;;12.70;99.90;;;;;;5033269;28;20236;-86
2023/08/10 01:14:43;;;;;;;1.95;1.10;;;12.70;99.90;;;;;;5042396;28;20195;-85
2023/08/10 01:17:18;;;;;;;1.70;1.17;;;12.70;99.90;;;;;;5023051;28;20197;-84
2023/08/10 01:19:48;;;;;;;5.03;1.10;;;12.90;99.90;;;;;;5028524;27;20198;-86
2023/08/10 01:22:28;;;;;;;2.92;1.38;;;13.00;99.90;;;;;;5026822;28;20209;-86
2023/08/10 01:25:00;;;;;;;2.45;1.20;;;12.90;99.90;;;;;;5043449;28;20239;-85
2023/08/10 01:27:29;;;;;;;1.75;1.20;;;12.90;99.90;;;;;;5040113;28;20551;-85
2023/08/10 01:29:59;;;;;;;1.80;1.10;;;12.70;99.90;;;;;;5036926;28;20548;-85
2023/08/10 01:32:32;;;;;;;3.08;1.38;;;12.80;99.90;;;;;;5032086;28;20262;-86
2023/08/10 01:35:01;;;;;;;4.57;1.20;;;13.00;99.90;;;;;;5036748;28;20266;-87
2023/08/10 01:37:29;;;;;;;1.90;1.02;;;13.00;99.90;;;;;;5036672;28;20286;-85
2023/08/10 01:39:56;;;;;;;2.30;1.30;;;13.10;99.90;;;;;;5041718;28;20269;-85
2023/08/10 01:42:25;;;;;;;4.38;1.00;;;13.10;99.90;;;;;;5032839;28;20235;-86
2023/08/10 01:44:53;;;;;;;3.42;1.30;;;13.00;99.90;;;;;;5040568;28;20191;-86
2023/08/10 01:47:28;;;;;;;3.47;1.08;;;13.00;99.90;;;;;;5036690;28;20186;-85
2023/08/10 01:49:58;;;;;;;4.25;1.40;;;13.00;99.90;;;;;;5037988;28;20294;-86
2023/08/10 01:52:34;;;;;;;3.13;1.25;;;12.90;99.90;;;;;;5040280;28;20182;-85
2023/08/10 01:55:03;;;;;;;1.92;1.15;;;13.00;99.90;;;;;;5033463;28;20189;-85
2023/08/10 01:57:31;;;;;;;0.95;0.80;;;13.00;99.90;;;;;;5036380;28;20190;-85
2023/08/10 01:59:59;;;;;;;3.03;1.10;;;12.90;99.90;;;;;;5031872;28;20269;-85
2023/08/10 02:02:27;;;;;;;3.45;1.25;;;12.90;99.90;;;;;;5040490;28;20195;-85
2023/08/10 02:04:56;;;;;;;2.20;1.30;;;13.00;99.90;;;;;;5032947;28;20194;-85
2023/08/10 02:07:23;;;;;;;2.58;1.17;;;13.00;99.90;;;;;;5036218;28;20185;-85
2023/08/10 02:09:52;;;;;;;1.90;1.38;;;13.10;99.90;;;;;;5036603;28;20173;-84
2023/08/10 02:12:20;;;;;;;1.73;1.13;;;13.00;99.90;;;;;;5035583;28;20277;-85
2023/08/10 02:14:48;;;;;;;2.05;1.13;;;12.90;99.90;;;;;;5029798;27;20186;-85
2023/08/10 02:17:17;;;;;;;5.72;1.40;;;12.90;99.90;;;;;;5038516;28;20186;-85
2023/08/10 02:19:45;;;;;;;3.97;1.70;;;12.90;99.90;;;;;;5014289;28;20266;-85
2023/08/10 02:22:12;;;;;;;2.28;1.20;;;12.90;99.90;;;;;;5019217;28;20616;-85
2023/08/10 02:24:40;;;;;;;3.40;1.23;;;12.90;99.90;;;;;;5038003;28;20198;-85
2023/08/10 02:27:07;;;;;;;1.60;1.13;;;12.90;99.90;;;;;;5038918;28;20185;-84
2023/08/10 02:29:35;;;;;;;5.38;1.50;;;12.90;99.90;;;;;;5028604;28;20190;-85
2023/08/10 02:32:03;;;;;;;1.95;1.20;;;12.90;99.90;;;;;;5032107;28;20181;-86
2023/08/10 02:34:32;;;;;;;3.58;1.50;;;12.90;99.90;;;;;;5023690;28;20232;-85
2023/08/10 02:36:59;;;;;;;4.05;1.23;;;12.90;99.90;;;;;;5032205;28;20242;-85
2023/08/10 02:39:27;;;;;;;2.35;1.40;;;13.00;99.90;;;;;;5033630;28;20755;-85
2023/08/10 02:41:54;;;;;;;2.80;1.20;;;12.90;99.90;;;;;;5037592;28;20605;-85
2023/08/10 02:44:22;;;;;;;2.88;1.38;;;12.90;99.90;;;;;;5026656;28;20181;-84
2023/08/10 02:46:49;;;;;;;2.55;1.50;;;12.90;99.90;;;;;;5027958;28;20189;-85
2023/08/10 02:49:17;;;;;;;2.50;1.50;;;12.90;99.90;;;;;;5029218;28;20213;-84
2023/08/10 02:51:45;;;;;;;2.80;1.02;;;12.80;99.90;;;;;;5035933;28;20194;-86
2023/08/10 02:54:12;;;;;;;1.35;1.25;;;12.90;99.90;;;;;;5042395;28;20651;-85
2023/08/10 02:56:40;;;;;;;3.15;1.30;;;12.80;99.90;;;;;;5034148;28;20939;-85
2023/08/10 02:59:08;;;;;;;4.05;1.60;;;12.80;99.90;;;;;;5031523;28;20198;-84
2023/08/10 03:01:35;;;;;;;2.97;1.40;;;12.80;99.90;;;;;;5038783;28;20250;-85
2023/08/10 03:04:04;;;;;;;2.47;1.55;;;12.80;99.90;;;;;;5022751;28;20200;-86
2023/08/10 03:06:32;;;;;;;2.05;1.42;;;12.80;99.90;;;;;;5035123;28;20189;-85
2023/08/10 03:09:00;;;;;;;3.65;1.50;;;12.90;99.90;;;;;;5029856;28;20190;-86
2023/08/10 03:11:28;;;;;;;3.55;2.33;;;12.90;99.90;;;;;;5040377;28;20189;-85
2023/08/10 03:13:55;;;;;;;2.75;1.67;;;12.90;99.90;;;;;;5002862;28;20190;-85
2023/08/10 03:16:23;;;;;;;3.38;1.77;;;12.90;99.90;;;;;;5042615;28;20688;-85
2023/08/10 03:18:51;;;;;;;2.63;1.80;;;12.90;99.90;;;;;;5035510;28;21021;-86
2023/08/10 03:21:18;;;;;;;3.47;2.20;;;12.90;99.90;;;;;;5035694;28;20228;-85
2023/08/10 03:23:47;;;;;;;3.70;2.17;;;12.90;99.90;;;;;;5032453;28;20236;-85
2023/08/10 03:26:15;;;;;;;2.85;2.15;;;12.90;99.90;;;;;;5026739;28;20624;-86
2023/08/10 03:28:43;;;;;;;3.30;2.17;;;12.80;99.90;;;;;;5034741;28;20194;-85
2023/08/10 03:31:12;;;;;;;4.00;2.10;;;12.80;99.90;;;;;;5033152;28;20567;-86
2023/08/10 03:33:41;;;;;;;3.47;2.13;;;13.00;99.90;;;;;;5034555;28;20567;-85
2023/08/10 03:36:09;;;;;;;3.00;2.10;;;13.00;99.90;;;;;;5033864;28;20207;-85
2023/08/10 03:38:36;;;;;;;2.88;2.00;;;13.00;99.90;;;;;;5020455;28;20190;-84
2023/08/10 03:41:04;;;;;;;3.72;2.42;;;12.90;99.90;;;;;;5031648;28;20321;-84
2023/08/10 03:43:32;;;;;;;2.72;2.10;;;12.80;99.90;;;;;;5034633;28;20288;-86
2023/08/10 03:46:02;;;;;;;3.42;2.25;;;12.90;99.90;;;;;;5026361;27;20597;-86
2023/08/10 03:48:30;;;;;;;3.47;2.00;;;12.90;99.90;;;;;;5034384;28;20189;-84
2023/08/10 03:50:58;;;;;;;3.72;2.30;;;12.90;99.90;;;;;;5028555;28;20197;-85
2023/08/10 03:53:25;;;;;;;2.60;1.92;;;13.00;99.90;;;;;;5034990;28;20267;-85
2023/08/10 03:55:53;;;;;;;2.85;2.22;;;12.90;99.90;;;;;;5015417;28;20194;-86
2023/08/10 03:58:21;;;;;;;4.30;2.60;;;12.90;99.90;;;;;;5018865;28;20186;-84
2023/08/10 04:00:49;;;;;;;4.03;2.70;;;12.90;99.90;;;;;;5040080;28;20193;-85
2023/08/10 04:03:17;;;;;;;3.63;2.50;;;12.90;99.90;;;;;;5037062;28;20238;-85
2023/08/10 04:05:45;;;;;;;4.15;2.17;;;12.90;99.90;;;;;;5036141;28;20193;-85
2023/08/10 04:08:12;;;;;;;4.63;3.10;;;12.90;99.90;;;;;;5020543;28;20190;-86
2023/08/10 04:10:40;;;;;;;3.80;2.38;;;12.90;99.90;;;;;;5021079;28;20217;-84
2023/08/10 04:13:08;;;;;;;3.33;2.50;;;13.00;99.90;;;;;;5035701;28;20197;-86
2023/08/10 04:15:36;;;;;;;4.90;2.75;;;12.90;99.90;;;;;;5033098;28;20263;-86
2023/08/10 04:18:04;;;;;;;3.08;2.40;;;12.90;99.90;;;;;;5033629;28;20189;-86
2023/08/10 04:20:32;;;;;;;3.90;2.38;;;12.90;99.90;;;;;;5033834;28;20253;-86
2023/08/10 04:23:00;;;;;;;4.13;2.53;;;12.90;99.90;;;;;;5028143;28;20282;-85
2023/08/10 04:25:28;;;;;;;3.00;2.38;;;12.90;99.90;;;;;;5036480;28;20708;-86
2023/08/10 04:27:55;;;;;;;4.25;2.55;;;12.90;99.90;;;;;;5037442;28;20230;-86
2023/08/10 04:30:28;;;;;;;6.65;2.65;;;12.90;99.90;;;;;;5036723;28;20291;-85
2023/08/10 04:32:57;;;;;;;4.95;2.60;;;12.90;99.90;;;;;;5038993;28;20182;-86
2023/08/10 04:35:26;;;;;;;3.17;2.45;;;12.90;99.90;;;;;;5031721;28;20300;-86
2023/08/10 04:37:53;;;;;;;4.70;2.47;;;13.00;99.90;;;;;;5026645;28;20711;-86
2023/08/10 04:40:23;;;;;;;5.97;2.60;;;13.00;99.90;;;;;;5035149;28;20190;-86
2023/08/10 04:42:50;;;;;;;4.22;2.70;;;13.00;99.90;;;;;;5018600;28;20214;-84
2023/08/10 04:45:19;;;;;;;4.38;2.65;;;13.00;99.90;;;;;;5021131;28;20198;-85
2023/08/10 04:47:46;;;;;;;3.00;2.33;;;13.00;99.90;;;;;;5025377;28;20276;-86
2023/08/10 04:50:14;;;;;;;6.07;2.88;;;13.10;99.90;;;;;;5033951;28;20194;-85
2023/08/10 04:52:42;;;;;;;4.13;2.53;;;13.10;99.90;;;;;;5026189;28;20936;-84
2023/08/10 04:55:11;;;;;;;4.13;2.55;;;13.10;99.90;;;;;;5030411;28;20201;-85
2023/08/10 04:57:39;;;;;;;6.13;2.55;;;13.00;99.90;;;;;;5027618;28;20193;-85
2023/08/10 05:00:13;;;;;;;4.28;3.13;;;13.00;99.90;;;;;;5005582;28;20295;-86
2023/08/10 05:02:42;;;;;;;5.60;3.00;;;13.10;99.90;;;;;;5037468;28;20194;-86
2023/08/10 05:05:11;;;;;;;6.50;3.53;;;13.10;99.90;;;;;;5022175;28;20181;-86
2023/08/10 05:07:38;;;;;;;4.53;3.33;;;13.10;99.90;;;;;;5023808;28;20186;-85
2023/08/10 05:10:08;;;;;;;5.80;3.00;;;13.20;99.90;;;;;;5021873;28;20649;-84
2023/08/10 05:12:38;;;;;;;6.70;3.38;;;13.20;99.90;;;;;;5018481;28;20186;-84
2023/08/10 05:15:09;;;;;;;4.18;3.33;;;13.20;99.90;;;;;;5026267;28;20739;-84
2023/08/10 05:17:38;;;;;;;5.70;2.85;;;13.20;99.90;;;;;;5024965;28;20192;-86
2023/08/10 05:20:11;;;;;;;4.40;3.17;;;13.20;99.90;;;;;;5017492;28;20186;-84
2023/08/10 05:22:42;;;;;;;8.43;3.70;;;13.30;99.90;;;;;;5023846;28;20222;-84
2023/08/10 05:25:11;;;;;;;4.82;3.50;;;13.30;99.90;;;;;;5007914;28;20193;-85
2023/08/10 05:27:45;;;;;;;5.30;3.90;;;13.30;99.90;;;;;;5023042;28;20193;-86
2023/08/10 05:30:13;;;;;;;7.13;3.58;;;13.40;99.90;;;;;;5025466;28;20209;-85
2023/08/10 05:32:45;;;;;;;6.93;3.60;;;13.40;99.90;;;;;;5018184;28;20201;-85
2023/08/10 05:35:15;;;;;;;5.85;3.75;;;13.30;99.90;;;;;;5017763;28;20285;-85
2023/08/10 05:37:44;;;;;;;6.25;3.30;;;13.30;99.90;;;;;;5006296;28;20298;-83
2023/08/10 05:40:12;;;;;;;4.05;3.22;;;13.40;99.90;;;;;;5020508;28;20576;-83
2023/08/10 05:42:41;;;;;;;4.43;3.92;;;13.40;99.90;;;;;;5028211;28;20648;-85
2023/08/10 05:45:14;;;;;;;6.88;3.30;;;13.40;99.90;;;;;;5026312;28;20194;-85
2023/08/10 05:47:44;;;;;;;6.30;3.60;;;13.40;99.90;;;;;;5016759;28;20242;-84
2023/08/10 05:50:15;;;;;;;7.32;3.75;;;13.30;99.90;;;;;;5015771;28;20193;-85
2023/08/10 05:52:44;;;;;;;5.25;3.90;;;13.20;99.90;;;;;;5021204;28;20198;-84
2023/08/10 05:55:13;;;;;;;4.55;3.50;;;13.10;99.90;;;;;;5018766;28;20252;-84
2023/08/10 05:57:42;;;;;;;4.82;3.40;;;13.20;99.90;;;;;;5020691;28;20192;-83
2023/08/10 06:00:13;;;;;;;5.53;3.75;;;13.20;99.90;;;;;;5022451;28;20761;-83
2023/08/10 06:02:42;;;;;;;6.20;3.83;;;13.20;99.90;;;;;;5026017;28;20199;-86
2023/08/10 06:05:12;;;;;;;5.18;3.80;;;13.20;99.90;;;;;;5015550;28;20289;-84
2023/08/10 06:07:41;;;;;;;6.03;3.63;;;13.10;99.90;;;;;;5045648;28;20214;-85
2023/08/10 06:10:08;;;;;;;5.25;3.97;;;13.10;99.90;;;;;;5009499;28;20195;-84
2023/08/10 06:12:36;;;;;;;7.15;3.25;;;13.10;99.90;;;;;;5006145;28;20214;-84
2023/08/10 06:15:06;;;;;;;7.22;4.45;;;13.20;99.90;;;;;;5004741;28;20281;-85
2023/08/10 06:17:34;;;;;;;5.30;3.80;;;13.20;99.90;;;;;;5035755;28;20194;-84
2023/08/10 06:20:09;;;;;;;5.80;4.25;;;13.20;99.90;;;;;;5018455;28;20276;-85
2023/08/10 06:22:45;;;;;;;6.70;3.75;;;13.20;99.90;;;;;;5089087;27;20244;-85
2023/08/10 06:25:14;;;;;;;5.47;4.05;;;13.30;99.90;;;;;;5023748;28;20187;-85
2023/08/10 06:27:43;;;;;;;5.70;4.25;;;13.30;99.90;;;;;;5005652;28;20185;-84
2023/08/10 06:30:14;;;;;;;6.15;4.22;;;13.40;99.90;;;;;;5024903;28;20182;-85
2023/08/10 06:32:44;;;;;;;5.45;4.55;;;13.40;99.90;;;;;;5019044;28;20194;-85
2023/08/10 06:35:13;;;;;;;6.85;4.68;;;13.40;99.90;;;;;;5020427;28;20549;-84
2023/08/10 06:37:42;;;;;;;6.95;5.47;;;13.30;99.90;;;;;;5018861;28;20203;-83
2023/08/10 06:40:15;;;;;;;7.03;4.65;;;13.30;99.90;;;;;;5018065;28;20212;-85
2023/08/10 06:42:46;;;;;;;7.82;5.57;;;13.30;99.90;;;;;;5028644;28;20217;-85
2023/08/10 06:45:20;;;;;;;9.88;6.00;;;13.30;99.90;;;;;;5022175;28;20183;-83
2023/08/10 06:48:03;;;;;;;7.65;6.38;;;13.30;99.90;;;;;;5025303;28;20186;-84
2023/08/10 06:50:30;;;;;;;8.70;6.70;;;13.40;99.90;;;;;;5016481;28;20186;-86
2023/08/10 06:52:58;;;;;;;7.65;5.97;;;13.50;99.90;;;;;;5040571;28;20262;-85
2023/08/10 06:55:27;;;;;;;10.57;6.80;;;13.50;99.90;;;;;;5021968;28;20268;-84
2023/08/10 06:57:56;;;;;;;11.85;6.43;;;13.50;99.90;;;;;;5022275;28;20941;-83
2023/08/10 07:00:24;;;;;;;9.25;6.38;;;13.60;99.90;;;;;;5018803;28;20198;-84
2023/08/10 07:02:56;;;;;;;8.80;6.60;;;13.70;99.90;;;;;;5024733;28;20198;-84
2023/08/10 07:05:29;;;;;;;8.95;6.82;;;13.60;99.90;;;;;;5021394;28;20273;-84
2023/08/10 07:07:57;;;;;;;11.98;7.05;;;13.70;99.90;;;;;;5021126;28;20175;-85
2023/08/10 07:10:31;;;;;;;8.55;6.55;;;13.70;99.90;;;;;;5022753;28;20192;-84
2023/08/10 07:13:04;;;;;;;8.38;5.82;;;13.70;99.90;;;;;;5021850;28;20841;-85
2023/08/10 07:15:34;;;;;;;8.90;6.47;;;13.70;99.90;;;;;;5019533;28;20972;-84
2023/08/10 07:18:02;;;;;;;6.63;5.55;;;13.70;99.90;;;;;;5021365;28;20232;-83
2023/08/10 07:20:37;;;;;;;7.93;5.65;;;13.70;99.90;;;;;;5015615;28;20190;-84
2023/08/10 07:23:07;;;;;;;8.90;5.97;;;13.70;99.90;;;;;;5017792;28;20225;-84
2023/08/10 07:25:38;;;;;;;9.75;6.25;;;13.70;99.90;;;;;;5042540;28;20178;-85
2023/08/10 07:28:06;;;;;;;9.68;6.25;;;13.70;99.90;;;;;;5022367;28;20961;-83
2023/08/10 07:30:35;;;;;;;8.82;6.35;;;13.60;99.90;;;;;;5014545;28;20193;-85
2023/08/10 07:33:04;;;;;;;9.35;5.72;;;13.70;99.90;;;;;;5019174;28;20209;-85
2023/08/10 07:35:31;;;;;;;6.65;5.55;;;13.70;99.90;;;;;;5043335;28;21433;-84
2023/08/10 07:38:00;;;;;;;8.95;7.35;;;13.60;99.90;;;;;;5013213;28;20190;-84
2023/08/10 07:40:27;;;;;;;9.88;6.85;;;13.60;99.90;;;;;;5023827;28;20193;-86
2023/08/10 07:42:56;;;;;;;9.35;6.72;;;13.60;99.90;;;;;;5020242;28;20206;-85
2023/08/10 07:45:29;;;;;;;6.50;4.80;;;13.70;99.90;;;;;;5025823;28;20876;-84
2023/08/10 07:47:58;;;;;;;6.82;4.20;;;13.60;99.90;;;;;;5022445;28;20186;-84
2023/08/10 07:50:29;;;;;;;5.60;3.47;;;13.40;99.90;;;;;;5001539;28;20186;-85
2023/08/10 07:52:58;;;;;;;4.35;3.45;;;13.40;99.90;;;;;;5025756;28;20213;-84
2023/08/10 07:55:26;;;;;;;4.45;3.35;;;13.50;99.90;;;;;;5022375;28;20210;-84
2023/08/10 07:57:54;;;;;;;5.68;3.40;;;13.50;99.90;;;;;;5030172;28;20658;-84
2023/08/10 08:00:23;;;;;;;4.57;2.85;;;13.60;99.90;;;;;;5022739;28;20209;-84
2023/08/10 08:02:58;;;;;;;5.32;3.17;;;13.70;99.90;;;;;;5023015;28;20275;-83
2023/08/10 08:05:26;;;;;;;5.75;3.70;;;13.70;99.90;;;;;;5027816;28;20193;-84
2023/08/10 08:07:56;;;;;;;4.10;2.90;;;13.80;99.90;;;;;;5022297;28;20198;-83
2023/08/10 08:10:25;;;;;;;4.38;2.55;;;13.80;99.90;;;;;;5020761;28;20276;-84
2023/08/10 08:12:53;;;;;;;3.90;3.08;;;13.90;99.90;;;;;;5016820;28;20188;-84
2023/08/10 08:15:21;;;;;;;5.72;2.83;;;13.90;99.90;;;;;;5020748;28;20197;-84
2023/08/10 08:18:27;;;;;;;4.25;2.92;;;13.90;99.90;;;;;;5034555;28;20198;-84
2023/08/10 08:20:56;;;;;;;4.80;2.55;;;14.00;99.90;;;;;;5031129;28;20201;-84
2023/08/10 08:23:23;;;;;;;4.65;2.90;;;14.00;99.90;;;;;;5020999;28;20229;-85
2023/08/10 08:25:52;;;;;;;3.25;2.85;;;14.00;99.90;;;;;;5027477;28;20179;-85
2023/08/10 08:28:20;;;;;;;5.25;3.15;;;14.10;99.90;;;;;;4998911;28;20186;-84
2023/08/10 08:30:48;;;;;;;4.18;3.17;;;14.20;99.90;;;;;;5024572;28;20213;-85
2023/08/10 08:33:16;;;;;;;3.15;2.42;;;14.30;99.90;;;;;;5022614;28;20684;-85
2023/08/10 08:35:46;;;;;;;4.03;2.92;;;14.30;99.90;;;;;;5020793;28;20635;-85
2023/08/10 08:38:14;;;;;;;3.95;2.45;;;14.40;99.90;;;;;;5022925;28;20198;-84
2023/08/10 08:40:42;;;;;;;3.90;2.80;;;14.30;99.90;;;;;;5030254;28;20193;-85
2023/08/10 08:43:11;;;;;;;4.63;2.83;;;14.40;99.90;;;;;;5032271;28;20254;-85
2023/08/10 08:45:40;;;;;;;6.60;3.08;;;14.30;99.90;;;;;;5021625;28;20220;-85
2023/08/10 08:48:09;;;;;;;3.47;3.00;;;14.30;99.90;;;;;;5024986;28;20267;-85
2023/08/10 08:50:37;;;;;;;4.20;3.28;;;14.40;99.90;;;;;;5022813;28;20724;-85
2023/08/10 08:53:06;;;;;;;5.43;3.30;;;14.40;99.90;;;;;;5026558;28;20202;-85
2023/08/10 08:55:34;;;;;;;5.15;3.13;;;14.50;99.90;;;;;;5010279;28;20236;-84
2023/08/10 08:58:02;;;;;;;5.20;3.28;;;14.50;99.90;;;;;;5024908;28;20658;-85
2023/08/10 09:00:31;;;;;;;5.85;3.40;;;14.50;99.90;;;;;;5022851;28;20200;-85
2023/08/10 09:03:00;;;;;;;7.20;3.60;;;14.50;99.90;;;;;;5030444;28;20202;-86
2023/08/10 09:05:30;;;;;;;4.65;3.15;;;14.50;99.90;;;;;;5025374;28;20186;-86
2023/08/10 09:07:58;;;;;;;5.25;3.67;;;14.60;99.90;;;;;;5030683;28;20667;-85
2023/08/10 09:10:26;;;;;;;5.78;3.63;;;14.60;99.90;;;;;;5025129;28;20568;-85
2023/08/10 09:12:54;;;;;;;5.25;3.40;;;14.70;99.90;;;;;;5021609;28;20202;-83
2023/08/10 09:15:27;;;;;;;4.75;3.42;;;14.90;99.90;;;;;;5019409;28;20554;-84
2023/08/10 09:17:55;;;;;;;5.18;3.03;;;14.90;99.90;;;;;;5018480;28;20263;-84
2023/08/10 09:20:25;;;;;;;7.28;3.20;;;15.10;99.90;;;;;;5016802;28;20271;-83
2023/08/10 09:22:55;;;;;;;4.43;2.80;;;15.10;99.90;;;;;;5020289;28;20225;-84
2023/08/10 09:25:24;;;;;;;5.80;3.47;;;15.10;99.90;;;;;;5021700;28;20178;-84
2023/08/10 09:27:52;;;;;;;4.55;3.47;;;15.30;99.90;;;;;;5029544;28;20552;-84
2023/08/10 09:30:21;;;;;;;5.35;3.30;;;15.30;99.90;;;;;;5026239;28;20189;-84
2023/08/10 09:32:50;;;;;;;4.50;3.08;;;15.50;99.90;;;;;;5006460;28;20199;-83
2023/08/10 09:35:19;;;;;;;5.47;2.65;;;15.60;99.90;;;;;;5020971;28;20267;-83
2023/08/10 09:37:49;;;;;;;4.57;2.97;;;15.30;99.90;;;;;;5021579;28;20285;-84
2023/08/10 09:40:17;;;;;;;4.18;2.65;;;15.30;99.90;;;;;;5024803;28;20261;-84
2023/08/10 09:42:48;;;;;;;5.00;2.72;;;15.20;99.90;;;;;;5017971;28;20218;-84
2023/08/10 09:45:17;;;;;;;5.97;2.92;;;15.30;99.90;;;;;;5008742;28;20191;-86
2023/08/10 09:47:45;;;;;;;6.38;2.50;;;15.70;99.90;;;;;;5029809;28;20194;-85
2023/08/10 09:50:15;;;;;;;5.03;2.30;;;15.70;99.90;;;;;;5019747;28;20186;-84
2023/08/10 09:52:44;;;;;;;3.83;2.63;;;15.90;99.90;;;;;;5028313;28;20285;-84
2023/08/10 09:55:12;;;;;;;6.28;2.60;;;15.80;99.90;;;;;;5034388;28;20194;-85
2023/08/10 09:57:44;;;;;;;2.38;1.92;;;15.70;99.90;;;;;;5026548;28;20193;-84
2023/08/10 10:00:22;;;;;;;3.10;2.20;;;15.60;99.90;;;;;;5002863;28;20785;-85
2023/08/10 10:02:51;;;;;;;2.05;1.58;;;15.70;99.90;;;;;;5056810;28;20251;-86
2023/08/10 10:05:19;;;;;;;2.95;2.13;;;16.00;99.90;;;;;;5026634;28;20549;-85
2023/08/10 10:07:50;;;;;;;4.78;2.47;;;16.10;99.90;;;;;;5027453;28;20185;-85
2023/08/10 10:10:18;;;;;;;4.22;2.05;;;16.00;99.90;;;;;;5025684;28;20174;-84
2023/08/10 10:12:49;;;;;;;4.40;2.35;;;15.90;99.90;;;;;;5019166;28;20553;-84
2023/08/10 10:15:20;;;;;;;2.58;1.90;;;15.90;99.90;;;;;;5008667;28;20690;-86
2023/08/10 10:17:52;;;;;;;2.97;2.03;;;15.90;99.90;;;;;;5008273;28;20235;-85
2023/08/10 10:20:23;;;;;;;3.97;2.00;;;16.20;99.90;;;;;;5021719;28;20183;-85
2023/08/10 10:22:51;;;;;;;3.55;1.90;;;16.40;99.90;;;;;;5018505;28;20306;-85
2023/08/10 10:25:20;;;;;;;2.35;1.50;;;16.60;99.90;;;;;;5024552;28;20600;-84
2023/08/10 10:27:50;;;;;;;3.08;1.90;;;16.40;99.90;;;;;;5022457;28;20635;-85
2023/08/10 10:30:21;;;;;;;3.47;1.70;;;16.30;99.90;;;;;;5023745;28;20271;-85
2023/08/10 10:32:52;;;;;;;5.38;2.08;;;16.40;99.90;;;;;;5029426;28;20304;-85
2023/08/10 10:35:25;;;;;;;2.65;1.88;;;16.50;99.90;;;;;;5039054;28;20567;-85
2023/08/10 10:37:55;;;;;;;2.63;1.65;;;16.30;99.90;;;;;;5032796;28;20660;-85
2023/08/10 10:40:24;;;;;;;3.90;1.85;;;16.30;99.90;;;;;;5033250;28;20278;-85
2023/08/10 10:43:04;;;;;;;3.50;1.73;;;16.20;99.90;;;;;;5018329;28;20245;-86
2023/08/10 10:45:40;;;;;;;3.92;1.60;;;16.20;99.90;;;;;;5032195;28;20234;-85
2023/08/10 10:48:10;;;;;;;2.63;1.55;;;16.60;99.90;;;;;;5036117;28;20202;-84
2023/08/10 10:50:38;;;;;;;3.35;1.42;;;16.70;99.90;;;;;;5034047;28;20185;-84
2023/08/10 10:53:17;;;;;;;3.05;1.75;;;16.80;99.90;;;;;;5027968;28;20667;-84
2023/08/10 10:55:46;;;;;;;2.25;1.30;;;16.90;99.90;;;;;;5035674;28;20200;-85
2023/08/10 10:58:14;;;;;;;5.25;1.80;;;16.90;99.90;;;;;;5033200;28;20186;-86
2023/08/10 11:00:44;;;;;;;2.20;1.73;;;17.00;99.90;;;;;;5033465;28;20198;-85
2023/08/10 11:03:18;;;;;;;3.03;1.60;;;17.00;99.90;;;;;;5033889;28;20594;-85
2023/08/10 11:05:46;;;;;;;1.98;1.50;;;17.20;99.90;;;;;;5032126;28;20201;-85
2023/08/10 11:08:15;;;;;;;1.70;1.27;;;17.30;99.90;;;;;;5015938;28;20204;-84
2023/08/10 11:10:44;;;;;;;2.72;1.42;;;17.30;99.90;;;;;;5034625;28;20550;-86
2023/08/10 11:13:12;;;;;;;1.70;1.42;;;17.30;99.90;;;;;;5024845;28;20200;-84
2023/08/10 11:15:40;;;;;;;3.05;1.50;;;17.30;99.90;;;;;;5036941;28;20312;-85
2023/08/10 11:18:12;;;;;;;3.53;1.30;;;17.30;99.90;;;;;;5038793;28;20197;-86
2023/08/10 11:20:48;;;;;;;3.50;1.60;;;17.20;99.90;;;;;;5021813;28;20289;-84
2023/08/10 11:23:16;;;;;;;1.70;1.30;;;17.10;99.90;;;;;;5036158;28;20237;-85
2023/08/10 11:25:50;;;;;;;2.03;1.50;;;17.20;99.90;;;;;;5023940;28;20193;-84
2023/08/10 11:28:23;;;;;;;2.13;1.38;;;17.30;99.90;;;;;;5023017;28;20185;-85
2023/08/10 11:30:50;;;;;;;2.88;1.65;;;17.70;99.90;;;;;;5035797;28;20203;-86
2023/08/10 11:33:19;;;;;;;2.70;1.42;;;17.60;99.90;;;;;;5038536;28;20216;-84
2023/08/10 11:35:51;;;;;;;1.45;1.20;;;17.80;99.90;;;;;;5019083;28;20197;-86
2023/08/10 11:38:20;;;;;;;3.03;1.30;;;17.90;99.90;;;;;;5030294;28;20203;-84
2023/08/10 11:40:48;;;;;;;2.33;1.10;;;18.00;99.90;;;;;;5046197;28;20194;-86
2023/08/10 11:43:20;;;;;;;2.25;1.52;;;18.20;99.90;;;;;;5032840;28;20266;-85
2023/08/10 11:45:48;;;;;;;3.17;1.60;;;18.30;99.90;;;;;;5032435;28;20247;-86
2023/08/10 11:48:19;;;;;;;3.08;1.20;;;18.30;99.90;;;;;;5040094;28;20189;-85
2023/08/10 11:50:47;;;;;;;3.22;1.55;;;18.40;99.90;;;;;;5037487;28;20749;-84
2023/08/10 11:53:20;;;;;;;1.98;1.50;;;18.30;99.90;;;;;;5045344;28;20268;-85
2023/08/10 11:55:50;;;;;;;3.78;1.50;;;18.20;99.90;;;;;;5041527;28;20185;-85
2023/08/10 11:58:19;;;;;;;1.65;1.10;;;18.40;99.90;;;;;;5043287;28;20602;-85
2023/08/10 12:00:53;;;;;;;3.08;1.10;;;18.40;99.90;;;;;;5035229;28;20215;-85
2023/08/10 12:03:21;;;;;;;3.58;1.40;;;18.50;99.90;;;;;;5040980;28;20204;-84
2023/08/10 12:05:59;;;;;;;2.92;1.33;;;18.50;99.90;;;;;;5039121;28;20643;-84
2023/08/10 12:08:29;;;;;;;3.25;1.33;;;18.60;99.90;;;;;;5035565;28;20281;-84
2023/08/10 12:11:03;;;;;;;1.55;1.25;;;18.90;99.90;;;;;;5037132;28;20213;-85
2023/08/10 12:13:46;;;;;;;1.70;1.40;;;18.80;99.90;;;;;;5038599;28;20202;-84
2023/08/10 12:16:17;;;;;;;3.10;1.58;;;19.00;99.90;;;;;;5041847;28;20241;-85
2023/08/10 12:18:45;;;;;;;3.20;1.67;;;18.30;99.90;;;;;;5031957;28;20218;-84
2023/08/10 12:21:13;;;;;;;2.67;1.38;;;18.20;99.90;;;;;;5033233;28;20217;-85
2023/08/10 12:23:41;;;;;;;2.97;1.40;;;18.60;99.90;;;;;;5032583;28;20229;-85
2023/08/10 12:26:11;;;;;;;2.28;1.02;;;18.90;99.90;;;;;;5036638;28;20217;-86
2023/08/10 12:28:39;;;;;;;3.63;1.30;;;19.40;99.90;;;;;;5040208;28;20185;-84
2023/08/10 12:31:08;;;;;;;4.10;1.10;;;19.40;99.90;;;;;;5036958;28;20190;-85
2023/08/10 12:33:41;;;;;;;2.40;1.33;;;18.90;99.90;;;;;;5044285;28;20719;-84
2023/08/10 12:36:09;;;;;;;2.60;1.15;;;18.80;99.90;;;;;;5040436;28;20185;-86
2023/08/10 12:38:36;;;;;;;2.35;1.48;;;18.80;99.90;;;;;;5037715;28;20197;-84
2023/08/10 12:41:07;;;;;;;1.75;1.00;;;18.80;99.90;;;;;;5034289;28;20265;-86
2023/08/10 12:43:34;;;;;;;1.90;0.90;;;18.50;99.90;;;;;;5042337;28;20209;-84
2023/08/10 12:46:02;;;;;;;3.55;1.30;;;19.00;99.90;;;;;;5037753;28;20434;-85
2023/08/10 12:48:29;;;;;;;1.70;1.33;;;19.40;99.90;;;;;;5031994;28;20186;-84
2023/08/10 12:50:57;;;;;;;3.30;1.40;;;19.60;99.90;;;;;;5025639;28;20205;-85
2023/08/10 12:53:25;;;;;;;1.40;1.25;;;19.70;99.90;;;;;;5054505;28;20602;-85
2023/08/10 12:55:53;;;;;;;3.75;1.30;;;19.50;99.90;;;;;;5036711;28;20193;-85
2023/08/10 12:58:20;;;;;;;3.50;1.33;;;19.20;99.90;;;;;;5040092;28;20200;-85